createdAt,value
2019-05-23T00:00:25.450Z,3.27
2019-05-23T00:03:14.822Z,3.25
2019-05-23T00:06:04.869Z,4.00
2019-05-23T00:08:52.564Z,4.35
2019-05-23T00:11:44.753Z,3.55
2019-05-23T00:14:33.666Z,3.70
2019-05-23T00:17:04.917Z,3.60
2019-05-23T00:19:35.031Z,4.20
2019-05-23T00:22:08.076Z,3.92
2019-05-23T00:24:38.771Z,4.03
2019-05-23T00:27:08.840Z,4.20
2019-05-23T00:29:40.465Z,3.25
2019-05-23T00:32:35.317Z,3.60
2019-05-23T00:35:06.540Z,4.10
2019-05-23T00:37:37.472Z,3.67
2019-05-23T00:40:08.764Z,3.50
2019-05-23T00:42:38.446Z,3.50
2019-05-23T00:45:09.687Z,3.60
2019-05-23T00:47:40.314Z,4.60
2019-05-23T00:50:10.668Z,3.67
2019-05-23T00:52:40.665Z,3.40
2019-05-23T00:55:11.118Z,3.87
2019-05-23T00:57:42.323Z,4.08
2019-05-23T01:00:14.458Z,4.03
2019-05-23T01:02:46.404Z,4.10
2019-05-23T01:05:16.199Z,4.07
2019-05-23T01:07:45.800Z,3.20
2019-05-23T01:10:17.676Z,3.40
2019-05-23T01:12:51.290Z,3.10
2019-05-23T01:15:22.333Z,3.00
2019-05-23T01:17:52.382Z,2.70
2019-05-23T01:20:27.239Z,3.70
2019-05-23T01:22:57.711Z,2.90
2019-05-23T01:25:28.044Z,3.10
2019-05-23T01:27:58.391Z,3.70
2019-05-23T01:30:31.293Z,3.60
2019-05-23T01:33:02.414Z,3.00
2019-05-23T01:35:32.882Z,2.87
2019-05-23T01:38:04.347Z,2.77
2019-05-23T01:40:33.891Z,3.30
2019-05-23T01:43:04.455Z,2.63
2019-05-23T01:45:34.307Z,3.10
2019-05-23T01:48:04.383Z,3.13
2019-05-23T01:50:34.327Z,3.37
2019-05-23T01:53:04.440Z,3.80
2019-05-23T01:55:33.931Z,3.67
2019-05-23T01:58:04.264Z,3.73
2019-05-23T02:00:34.401Z,3.80
2019-05-23T02:03:05.516Z,3.90
2019-05-23T02:05:36.845Z,3.60
2019-05-23T02:08:09.654Z,3.77
2019-05-23T02:10:39.359Z,3.53
2019-05-23T02:13:09.376Z,2.83
2019-05-23T02:15:40.091Z,2.73
2019-05-23T02:18:09.992Z,3.60
2019-05-23T02:20:39.483Z,3.53
2019-05-23T02:23:10.858Z,4.20
2019-05-23T02:25:42.087Z,3.13
2019-05-23T02:28:12.383Z,3.10
2019-05-23T02:30:42.141Z,3.23
2019-05-23T02:33:12.266Z,2.67
2019-05-23T02:35:42.041Z,2.83
2019-05-23T02:38:27.959Z,2.90
2019-05-23T02:41:04.174Z,2.30
2019-05-23T02:43:34.389Z,2.40
2019-05-23T02:46:08.265Z,2.23
2019-05-23T02:48:43.164Z,2.20
2019-05-23T02:51:19.392Z,2.20
2019-05-23T02:53:51.594Z,2.20
2019-05-23T02:56:21.686Z,3.27
2019-05-23T02:59:28.921Z,2.70
2019-05-23T03:02:46.337Z,2.60
2019-05-23T03:05:18.105Z,2.60
2019-05-23T03:07:47.622Z,2.07
2019-05-23T03:10:19.014Z,2.87
2019-05-23T03:12:49.367Z,2.70
2019-05-23T03:15:19.395Z,2.60
2019-05-23T03:17:51.632Z,2.60
2019-05-23T03:20:21.844Z,2.90
2019-05-23T03:22:57.047Z,2.33
2019-05-23T03:26:14.134Z,4.67
2019-05-23T03:28:43.988Z,3.30
2019-05-23T03:31:29.689Z,3.30
2019-05-23T03:33:52.101Z,2.70
2019-05-23T03:36:21.769Z,3.60
2019-05-23T03:38:53.241Z,2.33
2019-05-23T03:41:23.084Z,2.70
2019-05-23T03:43:53.082Z,2.30
2019-05-23T03:46:27.193Z,2.60
2019-05-23T03:48:57.824Z,2.70
2019-05-23T03:51:27.490Z,2.93
2019-05-23T03:53:57.978Z,2.50
2019-05-23T03:56:28.342Z,2.70
2019-05-23T03:58:58.512Z,3.50
2019-05-23T04:01:46.283Z,3.20
2019-05-23T04:04:02.944Z,3.03
2019-05-23T04:06:32.890Z,3.57
2019-05-23T04:09:04.142Z,3.03
2019-05-23T04:11:34.013Z,3.40
2019-05-23T04:14:05.139Z,3.17
2019-05-23T04:16:34.695Z,3.40
2019-05-23T04:19:04.754Z,3.10
2019-05-23T04:21:34.489Z,2.23
2019-05-23T04:24:04.581Z,3.60
2019-05-23T04:26:34.213Z,3.10
2019-05-23T04:29:04.915Z,4.03
2019-05-23T04:31:34.982Z,3.83
2019-05-23T04:34:04.544Z,3.08
2019-05-23T04:36:34.022Z,3.63
2019-05-23T04:39:04.643Z,3.67
2019-05-23T04:41:34.202Z,4.30
2019-05-23T04:44:04.234Z,3.70
2019-05-23T04:46:34.817Z,3.58
2019-05-23T04:49:04.478Z,3.07
2019-05-23T04:51:34.226Z,3.27
2019-05-23T04:54:04.256Z,3.63
2019-05-23T04:56:34.396Z,4.10
2019-05-23T04:59:04.403Z,3.10
2019-05-23T05:01:34.197Z,3.92
2019-05-23T05:04:04.240Z,4.30
2019-05-23T05:06:34.483Z,4.83
2019-05-23T05:09:08.028Z,5.08
2019-05-23T05:11:37.511Z,5.97
2019-05-23T05:14:07.087Z,5.50
2019-05-23T05:16:36.912Z,6.90
2019-05-23T05:19:06.440Z,7.33
2019-05-23T05:21:36.962Z,8.60
2019-05-23T05:24:06.702Z,9.50
2019-05-23T05:26:36.242Z,10.10
2019-05-23T05:29:05.927Z,11.67
2019-05-23T05:31:35.429Z,11.17
2019-05-23T05:34:05.013Z,10.15
2019-05-23T05:36:34.623Z,10.50
2019-05-23T05:39:05.874Z,11.70
2019-05-23T05:41:35.470Z,10.90
2019-05-23T05:44:05.201Z,11.45
2019-05-23T05:46:35.487Z,12.82
2019-05-23T05:49:05.679Z,11.80
2019-05-23T05:51:35.275Z,13.65
2019-05-23T05:54:05.813Z,11.43
2019-05-23T05:56:35.426Z,12.30
2019-05-23T05:59:05.295Z,11.48
2019-05-23T06:01:35.258Z,11.73
2019-05-23T06:04:05.232Z,10.03
2019-05-23T06:06:40.737Z,12.20
2019-05-23T06:09:15.721Z,12.30
2019-05-23T06:11:45.301Z,9.93
2019-05-23T06:14:15.018Z,10.70
2019-05-23T06:16:45.107Z,11.22
2019-05-23T06:19:14.772Z,11.25
2019-05-23T06:21:44.431Z,10.60
2019-05-23T06:24:13.866Z,10.70
2019-05-23T06:26:43.578Z,9.57
2019-05-23T06:29:13.296Z,10.60
2019-05-23T06:31:43.163Z,10.60
2019-05-23T06:34:12.725Z,11.00
2019-05-23T06:36:42.321Z,9.30
2019-05-23T06:39:13.696Z,9.10
2019-05-23T06:41:43.508Z,8.13
2019-05-23T06:44:13.687Z,8.90
2019-05-23T06:46:43.282Z,7.60
2019-05-23T06:49:12.971Z,6.73
2019-05-23T06:51:42.957Z,6.23
2019-05-23T06:54:12.819Z,6.47
2019-05-23T06:56:42.668Z,6.90
2019-05-23T06:59:12.479Z,6.12
2019-05-23T07:01:41.968Z,5.50
2019-05-23T07:04:11.576Z,5.47
2019-05-23T07:06:41.015Z,4.50
2019-05-23T07:09:17.133Z,5.00
2019-05-23T07:11:46.954Z,4.00
2019-05-23T07:14:16.934Z,3.87
2019-05-23T07:16:50.166Z,4.33
2019-05-23T07:19:19.248Z,4.07
2019-05-23T07:21:48.818Z,4.23
2019-05-23T07:24:18.579Z,4.30
2019-05-23T07:26:48.166Z,3.07
2019-05-23T07:29:17.947Z,2.93
2019-05-23T07:31:47.483Z,3.42
2019-05-23T07:34:17.055Z,2.47
2019-05-23T07:36:46.715Z,2.37
2019-05-23T07:39:17.681Z,2.60
2019-05-23T07:41:47.310Z,2.17
2019-05-23T07:44:17.073Z,1.63
2019-05-23T07:46:47.111Z,2.20
2019-05-23T07:49:16.875Z,2.10
2019-05-23T07:51:47.160Z,1.50
2019-05-23T07:54:28.855Z,1.32
2019-05-23T07:56:58.937Z,1.20
2019-05-23T07:59:29.060Z,1.72
2019-05-23T08:02:09.571Z,1.33
2019-05-23T08:04:39.236Z,1.13
2019-05-23T08:07:10.143Z,1.07
2019-05-23T08:09:40.310Z,1.40
2019-05-23T08:12:10.798Z,1.17
2019-05-23T08:14:40.285Z,1.30
2019-05-23T08:17:10.351Z,1.45
2019-05-23T08:19:49.208Z,1.40
2019-05-23T08:22:11.221Z,1.20
2019-05-23T08:24:41.407Z,1.33
2019-05-23T08:27:11.053Z,1.62
2019-05-23T08:29:41.301Z,1.20
2019-05-23T08:32:11.384Z,1.60
2019-05-23T08:34:42.790Z,1.30
2019-05-23T08:37:13.696Z,1.37
2019-05-23T08:39:44.334Z,1.27
2019-05-23T08:42:14.368Z,1.80
2019-05-23T08:44:44.557Z,1.20
2019-05-23T08:47:15.852Z,1.13
2019-05-23T08:49:45.363Z,0.90
2019-05-23T08:52:15.038Z,1.20
2019-05-23T08:54:44.726Z,1.07
2019-05-23T08:57:14.760Z,1.67
2019-05-23T08:59:44.658Z,1.00
2019-05-23T09:02:14.137Z,1.20
2019-05-23T09:05:02.490Z,1.20
2019-05-23T09:07:15.216Z,1.30
2019-05-23T09:09:46.768Z,1.10
2019-05-23T09:12:17.481Z,1.45
2019-05-23T09:14:47.280Z,1.42
2019-05-23T09:17:17.255Z,1.30
2019-05-23T09:19:47.320Z,1.25
2019-05-23T09:22:17.083Z,1.07
2019-05-23T09:24:46.756Z,1.10
2019-05-23T09:27:16.329Z,1.50
2019-05-23T09:29:45.940Z,1.33
2019-05-23T09:32:15.501Z,1.40
2019-05-23T09:34:45.069Z,1.10
2019-05-23T09:37:16.217Z,1.30
2019-05-23T09:39:47.289Z,1.40
2019-05-23T09:42:16.974Z,1.70
2019-05-23T09:44:46.473Z,1.47
2019-05-23T09:47:15.984Z,1.73
2019-05-23T09:49:53.790Z,1.87
2019-05-23T09:52:16.873Z,1.67
2019-05-23T09:54:46.380Z,1.80
2019-05-23T09:57:17.072Z,1.53
2019-05-23T09:59:46.591Z,1.75
2019-05-23T10:02:16.913Z,1.50
2019-05-23T10:04:46.440Z,1.77
2019-05-23T10:07:16.321Z,2.33
2019-05-23T10:09:45.856Z,1.77
2019-05-23T10:12:15.550Z,1.93
2019-05-23T10:14:45.113Z,2.00
2019-05-23T10:17:14.773Z,2.07
2019-05-23T10:19:44.495Z,1.57
2019-05-23T10:22:14.745Z,1.80
2019-05-23T10:24:44.260Z,1.70
2019-05-23T10:27:13.918Z,1.60
2019-05-23T10:29:43.693Z,2.73
2019-05-23T10:32:13.459Z,2.10
2019-05-23T10:34:43.000Z,2.00
2019-05-23T10:37:14.543Z,1.83
2019-05-23T10:39:47.989Z,2.13
2019-05-23T10:42:17.976Z,2.10
2019-05-23T10:44:48.452Z,1.57
2019-05-23T10:47:18.008Z,1.83
2019-05-23T10:49:47.532Z,1.70
2019-05-23T10:52:17.236Z,2.12
2019-05-23T10:54:46.827Z,1.95
2019-05-23T10:57:17.408Z,1.70
2019-05-23T10:59:46.883Z,1.70
2019-05-23T11:02:16.431Z,1.10
2019-05-23T11:04:46.150Z,1.50
2019-05-23T11:07:15.734Z,1.33
2019-05-23T11:09:45.240Z,1.50
2019-05-23T11:12:15.415Z,1.92
2019-05-23T11:14:45.111Z,1.37
2019-05-23T11:17:14.612Z,3.70
2019-05-23T11:19:44.204Z,1.73
2019-05-23T11:22:14.013Z,2.30
2019-05-23T11:24:43.682Z,1.40
2019-05-23T11:27:13.198Z,1.52
2019-05-23T11:29:42.703Z,2.00
2019-05-23T11:32:12.844Z,1.73
2019-05-23T11:34:42.506Z,1.80
2019-05-23T11:37:12.123Z,1.77
2019-05-23T11:39:48.853Z,1.40
2019-05-23T11:42:13.144Z,1.80
2019-05-23T11:44:42.592Z,1.70
2019-05-23T11:47:12.279Z,1.90
2019-05-23T11:49:43.020Z,1.60
2019-05-23T11:52:14.236Z,1.43
2019-05-23T11:54:45.789Z,2.17
2019-05-23T11:57:15.446Z,2.00
2019-05-23T11:59:45.007Z,2.10
2019-05-23T12:02:20.626Z,1.60
2019-05-23T12:04:50.117Z,1.60
2019-05-23T12:07:27.459Z,1.50
2019-05-23T12:09:56.974Z,1.40
2019-05-23T12:12:27.093Z,1.30
2019-05-23T12:14:56.993Z,1.80
2019-05-23T12:17:29.535Z,1.60
2019-05-23T12:19:59.093Z,2.40
2019-05-23T12:22:28.814Z,2.07
2019-05-23T12:24:58.350Z,2.30
2019-05-23T12:27:27.840Z,1.97
2019-05-23T12:29:57.433Z,1.72
2019-05-23T12:32:27.498Z,2.10
2019-05-23T12:35:10.414Z,1.63
2019-05-23T12:37:28.285Z,1.77
2019-05-23T12:39:59.726Z,1.70
2019-05-23T12:42:30.304Z,1.60
2019-05-23T12:44:59.813Z,1.67
2019-05-23T12:47:40.828Z,1.47
2019-05-23T12:50:13.708Z,1.37
2019-05-23T12:52:43.213Z,1.67
2019-05-23T12:55:12.952Z,1.70
2019-05-23T12:57:42.724Z,1.60
2019-05-23T13:00:33.024Z,1.47
2019-05-23T13:03:02.548Z,1.52
2019-05-23T13:05:32.521Z,1.80
2019-05-23T13:08:06.292Z,1.47
2019-05-23T13:10:35.970Z,1.90
2019-05-23T13:13:05.606Z,1.90
2019-05-23T13:15:36.343Z,1.80
2019-05-23T13:18:06.059Z,1.60
2019-05-23T13:20:35.750Z,1.62
2019-05-23T13:23:05.415Z,1.80
2019-05-23T13:25:34.978Z,1.40
2019-05-23T13:28:05.011Z,2.17
2019-05-23T13:30:34.582Z,1.30
2019-05-23T13:33:04.338Z,1.57
2019-05-23T13:35:34.139Z,1.80
2019-05-23T13:38:05.711Z,1.50
2019-05-23T13:40:35.475Z,1.43
2019-05-23T13:43:07.880Z,1.50
2019-05-23T13:45:36.194Z,1.70
2019-05-23T13:48:05.926Z,1.50
2019-05-23T13:50:36.560Z,1.30
2019-05-23T13:53:06.466Z,1.40
2019-05-23T13:55:37.622Z,1.53
2019-05-23T13:58:07.115Z,1.50
2019-05-23T14:00:36.976Z,1.90
2019-05-23T14:03:07.103Z,1.50
2019-05-23T14:05:37.669Z,2.00
2019-05-23T14:08:12.667Z,1.53
2019-05-23T14:10:38.580Z,1.53
2019-05-23T14:13:08.062Z,1.77
2019-05-23T14:15:43.540Z,2.50
2019-05-23T14:18:16.291Z,1.62
2019-05-23T14:20:46.866Z,1.80
2019-05-23T14:23:26.572Z,1.80
2019-05-23T14:25:57.163Z,1.65
2019-05-23T14:28:27.301Z,1.30
2019-05-23T14:31:15.926Z,1.73
2019-05-23T14:33:49.756Z,1.70
2019-05-23T14:36:38.296Z,1.50
2019-05-23T14:39:14.859Z,1.67
2019-05-23T14:41:52.035Z,1.80
2019-05-23T14:44:21.603Z,1.60
2019-05-23T14:47:20.315Z,1.87
2019-05-23T14:50:00.411Z,2.20
2019-05-23T14:52:38.706Z,1.70
2019-05-23T14:55:10.974Z,1.80
2019-05-23T14:57:41.835Z,2.45
2019-05-23T15:00:12.523Z,1.87
2019-05-23T15:02:42.090Z,2.50
2019-05-23T15:05:11.782Z,1.80
2019-05-23T15:07:41.457Z,2.10
2019-05-23T15:10:11.393Z,2.00
2019-05-23T15:12:40.980Z,1.77
2019-05-23T15:15:12.101Z,2.07
2019-05-23T15:17:41.673Z,2.08
2019-05-23T15:20:12.164Z,2.10
2019-05-23T15:22:41.698Z,1.77
2019-05-23T15:25:11.617Z,2.15
2019-05-23T15:27:41.088Z,1.90
2019-05-23T15:30:11.091Z,2.40
2019-05-23T15:32:40.560Z,2.67
2019-05-23T15:35:10.156Z,2.47
2019-05-23T15:37:40.036Z,2.50
2019-05-23T15:40:09.658Z,2.47
2019-05-23T15:42:39.216Z,2.23
2019-05-23T15:45:09.002Z,2.40
2019-05-23T15:47:38.775Z,2.65
2019-05-23T15:50:11.968Z,2.40
2019-05-23T15:52:48.073Z,2.57
2019-05-23T15:55:29.648Z,2.20
2019-05-23T15:58:06.836Z,2.27
2019-05-23T16:00:54.372Z,2.40
2019-05-23T16:03:43.490Z,2.33
2019-05-23T16:06:15.589Z,2.20
2019-05-23T16:08:45.082Z,2.30
2019-05-23T16:11:17.653Z,2.20
2019-05-23T16:13:46.852Z,2.90
2019-05-23T16:16:16.528Z,2.45
2019-05-23T16:18:46.300Z,2.60
2019-05-23T16:21:17.050Z,2.83
2019-05-23T16:23:46.625Z,2.20
2019-05-23T16:26:16.320Z,2.17
2019-05-23T16:28:45.946Z,2.70
2019-05-23T16:31:15.516Z,2.60
2019-05-23T16:33:45.099Z,2.07
2019-05-23T16:36:14.627Z,2.40
2019-05-23T16:38:44.150Z,2.40
2019-05-23T16:41:13.653Z,2.60
2019-05-23T16:43:43.429Z,2.43
2019-05-23T16:46:12.914Z,2.20
2019-05-23T16:48:42.707Z,2.80
2019-05-23T16:51:12.255Z,2.03
2019-05-23T16:53:41.827Z,2.50
2019-05-23T16:56:16.370Z,2.33
2019-05-23T16:58:53.149Z,2.90
2019-05-23T17:01:29.650Z,2.07
2019-05-23T17:04:12.044Z,2.30
2019-05-23T17:06:53.735Z,3.63
2019-05-23T17:09:35.285Z,2.53
2019-05-23T17:12:32.775Z,2.90
2019-05-23T17:15:08.952Z,3.40
2019-05-23T17:18:02.730Z,3.47
2019-05-23T17:20:49.840Z,3.20
2019-05-23T17:23:37.397Z,3.20
2019-05-23T17:26:25.979Z,2.80
2019-05-23T17:28:55.994Z,3.60
2019-05-23T17:31:30.425Z,2.90
2019-05-23T17:34:00.065Z,3.50
2019-05-23T17:36:29.661Z,3.10
2019-05-23T17:38:59.252Z,3.40
2019-05-23T17:41:28.872Z,3.23
2019-05-23T17:43:58.622Z,3.40
2019-05-23T17:46:28.688Z,4.30
2019-05-23T17:48:58.459Z,3.93
2019-05-23T17:51:28.052Z,4.00
2019-05-23T17:53:57.775Z,3.70
2019-05-23T17:56:27.290Z,3.70
2019-05-23T17:58:56.769Z,3.63
2019-05-23T18:01:27.257Z,3.10
2019-05-23T18:03:56.823Z,3.27
2019-05-23T18:06:26.430Z,3.70
2019-05-23T18:08:55.942Z,3.30
2019-05-23T18:11:26.092Z,3.47
2019-05-23T18:13:55.618Z,3.47
2019-05-23T18:16:25.510Z,4.10
2019-05-23T18:18:56.324Z,3.00
2019-05-23T18:21:25.917Z,3.63
2019-05-23T18:23:55.561Z,3.83
2019-05-23T18:26:25.307Z,3.40
2019-05-23T18:28:54.950Z,3.50
2019-05-23T18:31:27.638Z,4.30
2019-05-23T18:33:57.667Z,3.17
2019-05-23T18:36:28.397Z,4.25
2019-05-23T18:38:57.946Z,3.50
2019-05-23T18:41:27.690Z,3.93
2019-05-23T18:43:59.358Z,3.55
2019-05-23T18:46:37.767Z,3.17
2019-05-23T18:49:09.787Z,3.20
2019-05-23T18:51:40.113Z,3.00
2019-05-23T18:54:09.911Z,3.83
2019-05-23T18:56:39.548Z,3.60
2019-05-23T18:59:10.030Z,3.83
2019-05-23T19:01:39.962Z,3.60
2019-05-23T19:04:10.528Z,3.45
2019-05-23T19:06:40.194Z,3.90
2019-05-23T19:09:13.346Z,3.87
2019-05-23T19:11:42.913Z,4.00
2019-05-23T19:14:12.421Z,3.17
2019-05-23T19:16:42.081Z,3.73
2019-05-23T19:19:11.597Z,3.60
2019-05-23T19:21:41.121Z,3.23
2019-05-23T19:24:10.971Z,3.70
2019-05-23T19:26:41.078Z,2.97
2019-05-23T19:29:11.949Z,3.50
2019-05-23T19:31:42.581Z,3.10
2019-05-23T19:34:12.099Z,3.00
2019-05-23T19:36:41.615Z,2.70
2019-05-23T19:39:12.990Z,3.63
2019-05-23T19:41:42.675Z,3.00
2019-05-23T19:44:12.356Z,3.30
2019-05-23T19:46:42.897Z,3.33
2019-05-23T19:49:13.458Z,2.87
2019-05-23T19:51:43.116Z,3.07
2019-05-23T19:54:12.620Z,2.53
2019-05-23T19:56:42.157Z,2.53
2019-05-23T19:59:11.669Z,3.50
2019-05-23T20:02:08.350Z,2.70
2019-05-23T20:04:39.813Z,3.10
2019-05-23T20:07:09.708Z,4.00
2019-05-23T20:09:39.202Z,3.67
2019-05-23T20:12:08.724Z,2.83
2019-05-23T20:14:38.206Z,3.30
2019-05-23T20:17:07.845Z,3.70
2019-05-23T20:19:37.551Z,3.53
2019-05-23T20:22:07.226Z,4.10
2019-05-23T20:24:36.723Z,3.70
2019-05-23T20:27:06.295Z,3.70
2019-05-23T20:29:35.815Z,3.97
2019-05-23T20:32:05.753Z,3.57
2019-05-23T20:34:35.546Z,3.30
2019-05-23T20:37:05.133Z,3.83
2019-05-23T20:39:34.793Z,3.73
2019-05-23T20:42:11.287Z,3.98
2019-05-23T20:44:35.853Z,3.57
2019-05-23T20:47:06.022Z,3.80
2019-05-23T20:49:35.563Z,3.57
2019-05-23T20:52:05.625Z,3.67
2019-05-23T20:54:35.128Z,4.40
2019-05-23T20:57:04.705Z,3.57
2019-05-23T20:59:34.267Z,3.67
2019-05-23T21:02:03.986Z,4.10
2019-05-23T21:04:33.559Z,4.17
2019-05-23T21:07:03.142Z,4.17
2019-05-23T21:09:32.651Z,3.40
2019-05-23T21:12:02.240Z,3.53
2019-05-23T21:14:31.905Z,4.20
2019-05-23T21:17:01.871Z,3.62
2019-05-23T21:19:31.521Z,3.92
2019-05-23T21:22:03.001Z,3.80
2019-05-23T21:24:34.071Z,4.45
2019-05-23T21:27:04.548Z,3.50
2019-05-23T21:29:34.106Z,3.43
2019-05-23T21:32:03.725Z,4.00
2019-05-23T21:34:33.243Z,3.90
2019-05-23T21:37:02.768Z,3.83
2019-05-23T21:39:32.256Z,4.60
2019-05-23T21:42:01.760Z,4.47
2019-05-23T21:44:31.260Z,4.47
2019-05-23T21:47:02.279Z,4.03
2019-05-23T21:49:31.850Z,3.70
2019-05-23T21:52:01.788Z,4.13
2019-05-23T21:54:32.252Z,4.20
2019-05-23T21:57:02.709Z,3.80
2019-05-23T21:59:32.215Z,4.37
2019-05-23T22:02:18.039Z,3.50
2019-05-23T22:04:53.760Z,4.80
2019-05-23T22:07:23.328Z,3.90
2019-05-23T22:09:52.888Z,4.10
2019-05-23T22:12:22.540Z,3.58
2019-05-23T22:14:52.499Z,3.70
2019-05-23T22:17:23.648Z,4.50
2019-05-23T22:19:53.214Z,4.30
2019-05-23T22:22:22.783Z,3.83
2019-05-23T22:24:52.765Z,3.97
2019-05-23T22:27:22.656Z,4.00
2019-05-23T22:29:52.208Z,3.27
2019-05-23T22:32:23.657Z,3.90
2019-05-23T22:34:58.356Z,3.63
2019-05-23T22:37:29.317Z,4.10
2019-05-23T22:39:59.007Z,3.73
2019-05-23T22:42:30.190Z,3.57
2019-05-23T22:44:59.861Z,3.20
2019-05-23T22:47:29.842Z,3.80
2019-05-23T22:49:59.396Z,3.57
2019-05-23T22:52:29.043Z,4.00
2019-05-23T22:54:58.605Z,4.43
2019-05-23T22:57:28.101Z,3.77
2019-05-23T22:59:57.711Z,4.27
2019-05-23T23:02:27.238Z,3.95
2019-05-23T23:04:57.916Z,5.70
2019-05-23T23:07:28.927Z,4.27
2019-05-23T23:09:58.821Z,5.23
2019-05-23T23:12:28.312Z,4.33
2019-05-23T23:15:00.215Z,4.53
2019-05-23T23:17:29.927Z,4.05
2019-05-23T23:19:59.483Z,4.35
2019-05-23T23:22:28.997Z,4.60
2019-05-23T23:25:00.098Z,4.10
2019-05-23T23:27:30.165Z,4.23
2019-05-23T23:29:59.669Z,3.90
2019-05-23T23:32:29.283Z,4.40
2019-05-23T23:34:58.785Z,5.07
2019-05-23T23:37:28.281Z,4.87
2019-05-23T23:39:57.787Z,4.47
2019-05-23T23:42:27.267Z,4.25
2019-05-23T23:45:14.518Z,5.13
2019-05-23T23:48:01.675Z,5.37
2019-05-23T23:50:49.001Z,4.78
2019-05-23T23:53:36.235Z,6.57
2019-05-23T23:56:23.879Z,5.30
2019-05-23T23:58:52.512Z,6.00
